createdAt,value
2023-05-01T00:02:27.526Z,8.35
2023-05-01T00:04:55.576Z,8.49
2023-05-01T00:07:24.559Z,8.35
2023-05-01T00:09:52.498Z,8.50
2023-05-01T00:12:21.841Z,8.61
2023-05-01T00:14:49.758Z,8.70
2023-05-01T00:17:18.034Z,8.66
2023-05-01T00:19:46.002Z,8.55
2023-05-01T00:22:13.965Z,8.52
2023-05-01T00:24:41.866Z,8.43
2023-05-01T00:27:09.811Z,8.27
2023-05-01T00:29:39.067Z,7.90
2023-05-01T00:32:07.232Z,8.08
2023-05-01T00:34:35.328Z,8.31
2023-05-01T00:37:03.599Z,8.44
2023-05-01T00:39:31.512Z,8.39
2023-05-01T00:41:59.472Z,8.27
2023-05-01T00:44:27.332Z,8.19
2023-05-01T00:47:00.250Z,8.17
2023-05-01T00:49:28.266Z,8.17
2023-05-01T00:51:56.377Z,8.14
2023-05-01T00:54:25.300Z,8.08
2023-05-01T00:56:53.751Z,8.07
2023-05-01T00:59:22.363Z,8.10
2023-05-01T01:01:50.526Z,8.07
2023-05-01T01:04:19.817Z,8.01
2023-05-01T01:06:54.230Z,7.98
2023-05-01T01:09:32.319Z,7.74
2023-05-01T01:12:07.847Z,7.49
2023-05-01T01:14:41.969Z,7.31
2023-05-01T01:17:18.939Z,7.30
2023-05-01T01:20:22.991Z,7.44
2023-05-01T01:22:59.312Z,7.67
2023-05-01T01:25:58.318Z,7.75
2023-05-01T01:28:41.263Z,7.80
2023-05-01T01:31:15.647Z,7.76
2023-05-01T01:33:57.221Z,7.47
2023-05-01T01:36:34.858Z,7.42
2023-05-01T01:39:10.402Z,7.34
2023-05-01T01:41:39.990Z,7.37
2023-05-01T01:44:11.033Z,7.46
2023-05-01T01:46:41.265Z,7.63
2023-05-01T01:49:14.797Z,7.68
2023-05-01T01:51:43.345Z,7.70
2023-05-01T01:54:13.114Z,7.67
2023-05-01T01:56:42.164Z,7.61
2023-05-01T01:59:11.340Z,7.59
2023-05-01T02:01:40.816Z,7.55
2023-05-01T02:04:10.792Z,7.58
2023-05-01T02:06:39.519Z,7.55
2023-05-01T02:09:07.999Z,7.59
2023-05-01T02:11:37.825Z,7.60
2023-05-01T02:14:06.450Z,7.58
2023-05-01T02:16:35.357Z,7.57
2023-05-01T02:19:04.388Z,7.54
2023-05-01T02:21:35.400Z,7.45
2023-05-01T02:24:04.047Z,7.25
2023-05-01T02:26:33.183Z,7.14
2023-05-01T02:29:01.314Z,6.85
2023-05-01T02:31:29.233Z,6.74
2023-05-01T02:33:57.521Z,6.82
2023-05-01T02:36:25.589Z,6.93
2023-05-01T02:38:55.263Z,7.05
2023-05-01T02:41:23.696Z,7.05
2023-05-01T02:43:56.968Z,7.02
2023-05-01T02:48:54.513Z,7.01
2023-05-01T02:51:22.593Z,7.07
2023-05-01T02:53:50.885Z,7.10
2023-05-01T02:56:20.456Z,7.11
2023-05-01T02:58:49.444Z,7.10
2023-05-01T03:01:17.456Z,7.06
2023-05-01T03:03:45.448Z,7.00
2023-05-01T03:06:14.333Z,6.93
2023-05-01T03:08:42.359Z,6.91
2023-05-01T03:11:10.375Z,6.88
2023-05-01T03:13:39.759Z,6.88
2023-05-01T03:16:08.092Z,6.91
2023-05-01T03:18:36.019Z,6.91
2023-05-01T03:21:03.918Z,6.91
2023-05-01T03:23:31.884Z,6.91
2023-05-01T03:25:59.802Z,6.87
2023-05-01T03:28:27.772Z,6.83
2023-05-01T03:30:57.255Z,6.82
2023-05-01T03:33:26.248Z,6.85
2023-05-01T03:36:01.624Z,6.85
2023-05-01T03:38:29.524Z,6.78
2023-05-01T03:40:57.522Z,6.78
2023-05-01T03:43:25.901Z,6.79
2023-05-01T03:45:53.825Z,6.77
2023-05-01T03:48:23.386Z,6.63
2023-05-01T03:50:51.312Z,6.70
2023-05-01T03:53:19.438Z,6.67
2023-05-01T03:55:47.558Z,6.65
2023-05-01T03:58:15.449Z,6.59
2023-05-01T04:00:43.320Z,6.62
2023-05-01T04:03:11.332Z,6.54
2023-05-01T04:05:40.778Z,6.47
2023-05-01T04:08:08.975Z,6.46
2023-05-01T04:10:37.225Z,6.25
2023-05-01T04:13:05.150Z,6.27
2023-05-01T04:15:33.026Z,6.02
2023-05-01T04:18:01.650Z,5.75
2023-05-01T04:20:29.755Z,5.81
2023-05-01T04:22:59.031Z,5.99
2023-05-01T04:25:27.404Z,5.85
2023-05-01T04:27:55.326Z,5.53
2023-05-01T04:30:23.190Z,5.64
2023-05-01T04:32:51.156Z,5.90
2023-05-01T04:35:19.136Z,6.18
2023-05-01T04:37:47.283Z,6.37
2023-05-01T04:40:16.699Z,6.50
2023-05-01T04:42:44.728Z,6.61
2023-05-01T04:45:13.002Z,6.58
2023-05-01T04:47:40.926Z,6.60
2023-05-01T04:50:09.419Z,6.62
2023-05-01T04:52:37.572Z,6.63
2023-05-01T04:55:06.101Z,6.62
2023-05-01T04:57:35.386Z,6.70
2023-05-01T05:00:03.853Z,6.72
2023-05-01T05:02:31.846Z,6.70
2023-05-01T05:04:59.945Z,6.70
2023-05-01T05:07:27.852Z,6.67
2023-05-01T05:09:56.168Z,6.57
2023-05-01T05:12:25.092Z,6.53
2023-05-01T05:14:54.374Z,6.55
2023-05-01T05:17:22.309Z,6.62
2023-05-01T05:19:50.279Z,6.59
2023-05-01T05:22:18.182Z,6.50
2023-05-01T05:24:47.065Z,6.42
2023-05-01T05:27:16.035Z,6.46
2023-05-01T05:29:44.657Z,6.54
2023-05-01T05:32:14.055Z,6.48
2023-05-01T05:34:42.011Z,6.52
2023-05-01T05:37:09.896Z,6.62
2023-05-01T05:39:38.050Z,6.74
2023-05-01T05:42:06.079Z,6.78
2023-05-01T05:44:36.040Z,6.89
2023-05-01T05:47:03.966Z,6.98
2023-05-01T05:49:33.376Z,7.09
2023-05-01T05:52:01.291Z,7.05
2023-05-01T05:54:29.297Z,7.34
2023-05-01T05:56:57.246Z,7.74
2023-05-01T05:59:25.141Z,8.02
2023-05-01T06:01:53.058Z,8.19
2023-05-01T06:04:20.943Z,8.22
2023-05-01T06:06:53.563Z,8.47
2023-05-01T06:09:33.533Z,8.63
2023-05-01T06:12:01.946Z,8.73
2023-05-01T06:14:37.816Z,8.78
2023-05-01T06:17:09.696Z,8.93
2023-05-01T06:19:38.730Z,8.93
2023-05-01T06:22:08.064Z,9.03
2023-05-01T06:24:36.858Z,9.19
2023-05-01T06:27:04.867Z,9.31
2023-05-01T06:29:32.775Z,9.47
2023-05-01T06:32:00.742Z,9.56
2023-05-01T06:34:28.870Z,9.77
2023-05-01T06:36:56.754Z,9.89
2023-05-01T06:39:26.024Z,9.79
2023-05-01T06:41:53.920Z,9.96
2023-05-01T06:44:22.136Z,10.00
2023-05-01T06:46:50.327Z,10.03
2023-05-01T06:49:18.351Z,10.25
2023-05-01T06:51:46.249Z,10.39
2023-05-01T06:54:14.208Z,10.65
2023-05-01T06:56:43.565Z,10.77
2023-05-01T06:59:11.522Z,10.78
2023-05-01T07:01:39.520Z,11.01
2023-05-01T07:04:07.536Z,11.04
2023-05-01T07:06:35.633Z,11.32
2023-05-01T07:09:04.034Z,11.44
2023-05-01T07:11:32.265Z,11.63
2023-05-01T07:14:01.958Z,11.82
2023-05-01T07:16:29.936Z,11.90
2023-05-01T07:18:57.889Z,11.94
2023-05-01T07:21:25.921Z,11.97
2023-05-01T07:23:53.813Z,12.18
2023-05-01T07:26:21.828Z,12.24
2023-05-01T07:28:49.705Z,12.36
2023-05-01T07:31:19.035Z,12.43
2023-05-01T07:33:47.620Z,12.51
2023-05-01T07:36:15.540Z,12.59
2023-05-01T07:38:43.436Z,12.69
2023-05-01T07:41:11.316Z,12.69
2023-05-01T07:43:39.252Z,12.88
2023-05-01T07:46:07.244Z,12.97
2023-05-01T07:48:38.701Z,12.97
2023-05-01T07:51:07.095Z,13.05
2023-05-01T07:53:35.142Z,13.13
2023-05-01T07:56:07.035Z,13.21
2023-05-01T07:58:34.924Z,13.25
2023-05-01T08:01:03.322Z,13.23
2023-05-01T08:03:31.863Z,13.16
2023-05-01T08:06:01.300Z,13.33
2023-05-01T08:08:29.231Z,13.69
2023-05-01T08:10:57.327Z,13.66
2023-05-01T08:13:25.244Z,13.78
2023-05-01T08:15:53.565Z,13.77
2023-05-01T08:18:21.606Z,14.02
2023-05-01T08:20:49.832Z,14.23
2023-05-01T08:23:19.285Z,14.16
2023-05-01T08:25:50.853Z,14.48
2023-05-01T08:28:20.759Z,14.45
2023-05-01T08:30:50.384Z,14.47
2023-05-01T08:33:18.332Z,14.41
2023-05-01T08:35:46.242Z,14.61
2023-05-01T08:38:14.143Z,14.64
2023-05-01T08:40:45.480Z,14.61
2023-05-01T08:43:14.189Z,14.89
2023-05-01T08:45:44.112Z,14.84
2023-05-01T08:48:13.113Z,14.66
2023-05-01T08:50:41.550Z,14.84
2023-05-01T08:53:10.187Z,15.04
2023-05-01T08:55:38.821Z,15.14
2023-05-01T08:58:09.021Z,15.15
2023-05-01T09:00:37.117Z,15.21
2023-05-01T09:03:05.942Z,15.52
2023-05-01T09:05:34.611Z,15.38
2023-05-01T09:08:02.531Z,15.25
2023-05-01T09:10:32.950Z,15.07
2023-05-01T09:13:02.964Z,15.45
2023-05-01T09:15:34.109Z,15.78
2023-05-01T09:18:03.717Z,15.93
2023-05-01T09:20:32.757Z,15.44
2023-05-01T09:23:00.716Z,15.66
2023-05-01T09:25:29.308Z,15.77
2023-05-01T09:27:57.700Z,15.77
2023-05-01T09:30:37.623Z,15.87
2023-05-01T09:33:09.604Z,16.30
2023-05-01T09:35:53.498Z,16.22
2023-05-01T09:38:22.738Z,16.32
2023-05-01T09:40:50.928Z,15.98
2023-05-01T09:43:27.759Z,16.22
2023-05-01T09:46:06.678Z,16.34
2023-05-01T09:48:36.013Z,16.65
2023-05-01T09:51:21.890Z,16.80
2023-05-01T09:53:50.206Z,16.97
2023-05-01T09:56:18.529Z,16.86
2023-05-01T09:58:46.753Z,17.07
2023-05-01T10:01:16.415Z,17.37
2023-05-01T10:03:45.151Z,17.48
2023-05-01T10:06:13.453Z,17.42
2023-05-01T10:08:48.755Z,16.95
2023-05-01T10:11:16.996Z,17.10
2023-05-01T10:13:45.031Z,16.93
2023-05-01T10:16:31.851Z,16.76
2023-05-01T10:19:02.378Z,17.07
2023-05-01T10:21:33.148Z,17.39
2023-05-01T10:24:03.584Z,16.91
2023-05-01T10:26:31.482Z,16.92
2023-05-01T10:28:59.977Z,17.40
2023-05-01T10:31:28.926Z,17.55
2023-05-01T10:33:58.405Z,17.57
2023-05-01T10:36:30.008Z,16.97
2023-05-01T10:38:59.130Z,17.01
2023-05-01T10:42:04.921Z,17.57
2023-05-01T10:44:34.821Z,17.66
2023-05-01T10:47:41.586Z,17.85
2023-05-01T10:50:12.020Z,17.31
2023-05-01T10:53:17.666Z,17.71
2023-05-01T10:55:46.413Z,17.97
2023-05-01T10:58:53.964Z,17.78
2023-05-01T11:01:36.635Z,17.93
2023-05-01T11:04:05.667Z,18.26
2023-05-01T11:06:35.973Z,17.98
2023-05-01T11:09:04.900Z,18.10
2023-05-01T11:11:56.488Z,17.92
2023-05-01T11:14:24.999Z,17.63
2023-05-01T11:16:52.985Z,18.22
2023-05-01T11:19:47.621Z,18.45
2023-05-01T11:22:17.310Z,18.47
2023-05-01T11:24:45.387Z,18.78
2023-05-01T11:27:16.948Z,18.78
2023-05-01T11:29:49.736Z,18.51
2023-05-01T11:32:23.918Z,18.63
2023-05-01T11:34:52.866Z,18.99
2023-05-01T11:37:22.895Z,18.83
2023-05-01T11:39:52.635Z,19.31
2023-05-01T11:42:22.977Z,19.55
2023-05-01T11:45:12.186Z,19.76
2023-05-01T11:47:40.649Z,20.18
2023-05-01T11:50:10.722Z,20.11
2023-05-01T11:52:49.391Z,20.29
2023-05-01T11:55:18.066Z,19.92
2023-05-01T11:57:50.785Z,19.19
2023-05-01T12:00:28.325Z,20.03
2023-05-01T12:02:58.634Z,19.99
2023-05-01T12:05:26.898Z,20.36
2023-05-01T12:08:11.012Z,19.93
2023-05-01T12:10:40.086Z,19.75
2023-05-01T12:13:09.343Z,19.79
2023-05-01T12:15:38.647Z,19.84
2023-05-01T12:18:07.157Z,20.41
2023-05-01T12:20:45.206Z,20.97
2023-05-01T12:23:16.201Z,20.70
2023-05-01T12:25:45.191Z,20.77
2023-05-01T12:28:15.128Z,21.17
2023-05-01T12:30:43.754Z,20.77
2023-05-01T12:33:12.973Z,20.50
2023-05-01T12:35:41.492Z,20.67
2023-05-01T12:38:15.719Z,20.66
2023-05-01T12:40:53.241Z,20.12
2023-05-01T12:43:21.657Z,19.97
2023-05-01T12:45:53.263Z,20.16
2023-05-01T12:48:21.664Z,20.88
2023-05-01T12:50:54.502Z,20.45
2023-05-01T12:53:25.178Z,20.49
2023-05-01T12:55:54.755Z,20.63
2023-05-01T12:58:22.843Z,21.17
2023-05-01T13:00:52.389Z,20.95
2023-05-01T13:03:25.056Z,21.42
2023-05-01T13:05:55.127Z,21.70
2023-05-01T13:08:34.632Z,21.98
2023-05-01T13:11:04.021Z,21.20
2023-05-01T13:13:34.410Z,21.20
2023-05-01T13:16:07.477Z,21.73
2023-05-01T13:18:35.670Z,21.21
2023-05-01T13:21:09.181Z,21.41
2023-05-01T13:23:39.363Z,21.62
2023-05-01T13:26:08.452Z,21.61
2023-05-01T13:28:38.577Z,22.03
2023-05-01T13:31:13.334Z,21.70
2023-05-01T13:33:42.542Z,21.94
2023-05-01T13:36:24.453Z,21.89
2023-05-01T13:38:57.628Z,23.07
2023-05-01T13:41:26.655Z,23.51
2023-05-01T13:43:56.314Z,23.36
2023-05-01T13:46:26.374Z,22.91
2023-05-01T13:48:54.540Z,22.88
2023-05-01T13:51:23.898Z,22.28
2023-05-01T13:53:54.102Z,21.85
2023-05-01T13:56:23.605Z,21.47
2023-05-01T13:58:51.561Z,21.14
2023-05-01T14:01:20.689Z,21.02
2023-05-01T14:03:49.615Z,21.31
2023-05-01T14:06:19.226Z,21.06
2023-05-01T14:08:48.677Z,20.83
2023-05-01T14:11:16.984Z,20.65
2023-05-01T14:13:47.669Z,20.08
2023-05-01T14:16:23.775Z,20.02
2023-05-01T14:18:54.657Z,20.07
2023-05-01T14:21:24.293Z,20.23
2023-05-01T14:23:53.634Z,20.04
2023-05-01T14:26:23.878Z,20.17
2023-05-01T14:28:53.385Z,20.05
2023-05-01T14:31:27.339Z,20.03
2023-05-01T14:33:57.702Z,19.92
2023-05-01T14:36:26.563Z,19.97
2023-05-01T14:38:57.365Z,19.74
2023-05-01T14:41:25.700Z,19.97
2023-05-01T14:43:55.152Z,19.96
2023-05-01T14:46:29.873Z,19.97
2023-05-01T14:48:58.357Z,19.98
2023-05-01T14:51:26.419Z,20.05
2023-05-01T14:53:54.642Z,20.62
2023-05-01T14:56:22.990Z,20.65
2023-05-01T14:58:51.507Z,20.66
2023-05-01T15:01:20.827Z,21.57
2023-05-01T15:03:48.921Z,21.45
2023-05-01T15:06:17.326Z,21.26
2023-05-01T15:08:45.838Z,21.44
2023-05-01T15:11:14.461Z,21.60
2023-05-01T15:13:42.739Z,20.60
2023-05-01T15:16:11.000Z,20.62
2023-05-01T15:18:40.673Z,19.82
2023-05-01T15:21:08.570Z,19.64
2023-05-01T15:23:37.126Z,20.16
2023-05-01T15:26:05.124Z,20.04
2023-05-01T15:28:33.527Z,19.83
2023-05-01T15:31:02.228Z,19.81
2023-05-01T15:33:30.256Z,20.23
2023-05-01T15:35:59.585Z,21.04
2023-05-01T15:38:28.539Z,21.33
2023-05-01T15:40:57.279Z,21.64
2023-05-01T15:43:25.268Z,21.15
2023-05-01T15:45:57.708Z,21.23
2023-05-01T15:48:26.051Z,21.01
2023-05-01T15:50:53.962Z,20.90
2023-05-01T15:53:23.999Z,20.84
2023-05-01T15:55:52.240Z,20.99
2023-05-01T15:58:20.168Z,20.59
2023-05-01T16:00:50.059Z,20.37
2023-05-01T16:03:18.214Z,20.48
2023-05-01T16:05:47.058Z,20.56
2023-05-01T16:08:15.069Z,20.89
2023-05-01T16:10:44.443Z,20.85
2023-05-01T16:13:12.833Z,20.61
2023-05-01T16:15:40.791Z,20.79
2023-05-01T16:18:09.582Z,20.65
2023-05-01T16:20:42.650Z,21.24
2023-05-01T16:23:10.646Z,20.92
2023-05-01T16:25:44.784Z,20.94
2023-05-01T16:28:13.404Z,20.78
2023-05-01T16:30:44.495Z,20.59
2023-05-01T16:33:18.720Z,20.53
2023-05-01T16:35:48.412Z,20.23
2023-05-01T16:38:16.626Z,19.73
2023-05-01T16:40:46.999Z,19.72
2023-05-01T16:43:15.178Z,19.90
2023-05-01T16:45:43.217Z,19.77
2023-05-01T16:48:11.551Z,20.17
2023-05-01T16:50:41.556Z,19.78
2023-05-01T16:53:09.508Z,20.09
2023-05-01T16:55:37.421Z,20.32
2023-05-01T16:58:06.906Z,19.66
2023-05-01T17:00:34.838Z,19.44
2023-05-01T17:03:02.862Z,20.09
2023-05-01T17:05:30.880Z,19.82
2023-05-01T17:07:58.849Z,20.15
2023-05-01T17:10:26.796Z,19.91
2023-05-01T17:12:54.909Z,20.13
2023-05-01T17:15:24.365Z,20.61
2023-05-01T17:17:52.334Z,20.20
2023-05-01T17:20:20.251Z,20.62
2023-05-01T17:22:48.286Z,20.21
2023-05-01T17:25:16.401Z,20.44
2023-05-01T17:27:44.278Z,20.53
2023-05-01T17:30:12.729Z,20.40
2023-05-01T17:32:43.173Z,19.26
2023-05-01T17:35:11.463Z,18.85
2023-05-01T17:37:39.980Z,18.41
2023-05-01T17:40:11.073Z,18.64
2023-05-01T17:42:39.011Z,17.90
2023-05-01T17:45:10.027Z,17.56
2023-05-01T17:47:41.578Z,17.38
2023-05-01T17:50:12.932Z,17.18
2023-05-01T17:52:40.969Z,16.93
2023-05-01T17:55:09.828Z,16.40
2023-05-01T17:57:38.132Z,16.57
2023-05-01T18:00:07.285Z,16.33
2023-05-01T18:02:35.471Z,16.48
2023-05-01T18:05:03.684Z,16.45
2023-05-01T18:07:33.043Z,16.25
2023-05-01T18:10:01.326Z,15.75
2023-05-01T18:12:29.421Z,15.61
2023-05-01T18:14:57.411Z,15.49
2023-05-01T18:17:25.927Z,15.48
2023-05-01T18:19:53.886Z,15.44
2023-05-01T18:22:21.781Z,15.36
2023-05-01T18:24:51.095Z,14.87
2023-05-01T18:27:19.016Z,14.86
2023-05-01T18:29:46.945Z,14.93
2023-05-01T18:32:14.941Z,14.73
2023-05-01T18:34:43.190Z,14.91
2023-05-01T18:37:13.724Z,14.83
2023-05-01T18:39:41.758Z,14.91
2023-05-01T18:42:10.999Z,15.05
2023-05-01T18:44:38.937Z,14.78
2023-05-01T18:47:07.098Z,14.51
2023-05-01T18:49:35.231Z,14.52
2023-05-01T18:52:03.376Z,14.45
2023-05-01T18:54:31.511Z,13.86
2023-05-01T18:56:59.396Z,13.87
2023-05-01T18:59:31.039Z,13.60
2023-05-01T19:01:59.048Z,13.47
2023-05-01T19:04:27.034Z,13.35
2023-05-01T19:06:54.996Z,13.39
2023-05-01T19:09:22.977Z,13.35
2023-05-01T19:11:50.878Z,13.33
2023-05-01T19:14:21.390Z,13.28
2023-05-01T19:16:50.797Z,13.11
2023-05-01T19:19:18.744Z,13.07
2023-05-01T19:21:46.680Z,13.06
2023-05-01T19:24:14.578Z,13.10
2023-05-01T19:26:42.513Z,13.17
2023-05-01T19:29:11.256Z,13.03
2023-05-01T19:31:39.316Z,12.81
2023-05-01T19:34:08.652Z,12.71
2023-05-01T19:36:36.536Z,12.71
2023-05-01T19:39:05.428Z,12.74
2023-05-01T19:41:33.569Z,12.79
2023-05-01T19:44:01.565Z,12.73
2023-05-01T19:46:32.380Z,12.92
2023-05-01T19:49:00.338Z,12.93
2023-05-01T19:51:29.701Z,13.10
2023-05-01T19:53:57.604Z,12.67
2023-05-01T19:56:25.738Z,12.37
2023-05-01T19:58:54.372Z,12.60
2023-05-01T20:01:22.324Z,12.97
2023-05-01T20:03:50.290Z,12.87
2023-05-01T20:06:18.329Z,13.03
2023-05-01T20:08:48.411Z,12.92
2023-05-01T20:11:16.337Z,12.52
2023-05-01T20:13:45.475Z,12.12
2023-05-01T20:16:13.409Z,11.97
2023-05-01T20:18:41.361Z,11.58
2023-05-01T20:21:09.263Z,11.45
2023-05-01T20:23:37.203Z,11.52
2023-05-01T20:26:06.574Z,11.48
2023-05-01T20:28:34.512Z,11.48
2023-05-01T20:31:02.506Z,11.51
2023-05-01T20:33:30.430Z,11.37
2023-05-01T20:35:58.342Z,11.42
2023-05-01T20:38:28.087Z,11.59
2023-05-01T20:40:56.014Z,11.61
2023-05-01T20:43:25.292Z,11.67
2023-05-01T20:45:53.221Z,11.76
2023-05-01T20:48:21.602Z,11.84
2023-05-01T20:50:49.920Z,11.97
2023-05-01T20:53:19.021Z,12.23
2023-05-01T20:55:46.916Z,12.39
2023-05-01T20:58:14.803Z,12.54
2023-05-01T21:00:44.105Z,12.43
2023-05-01T21:03:14.516Z,12.33
2023-05-01T21:05:42.618Z,12.42
2023-05-01T21:08:10.591Z,12.53
2023-05-01T21:10:38.516Z,12.53
2023-05-01T21:13:06.518Z,12.57
2023-05-01T21:15:34.662Z,12.45
2023-05-01T21:18:04.068Z,12.54
2023-05-01T21:20:33.973Z,12.46
2023-05-01T21:23:02.506Z,12.42
2023-05-01T21:25:32.026Z,12.39
2023-05-01T21:28:02.137Z,12.37
2023-05-01T21:30:33.286Z,12.29
2023-05-01T21:33:01.552Z,12.24
2023-05-01T21:35:31.012Z,12.20
2023-05-01T21:37:59.066Z,12.21
2023-05-01T21:40:27.317Z,12.35
2023-05-01T21:42:56.387Z,12.50
2023-05-01T21:45:24.714Z,12.54
2023-05-01T21:47:52.862Z,12.29
2023-05-01T21:50:21.782Z,12.23
2023-05-01T21:52:51.221Z,12.16
2023-05-01T21:55:20.053Z,12.06
2023-05-01T21:57:49.866Z,12.13
2023-05-01T22:00:19.161Z,11.96
2023-05-01T22:02:49.210Z,11.74
2023-05-01T22:05:18.144Z,11.62
2023-05-01T22:07:47.022Z,11.50
2023-05-01T22:10:17.424Z,11.48
2023-05-01T22:12:46.099Z,11.47
2023-05-01T22:15:15.575Z,11.50
2023-05-01T22:17:43.945Z,11.60
2023-05-01T22:20:12.230Z,11.63
2023-05-01T22:22:41.337Z,11.63
2023-05-01T22:25:10.378Z,11.65
2023-05-01T22:27:39.831Z,11.64
2023-05-01T22:30:08.549Z,11.72
2023-05-01T22:32:36.607Z,11.69
2023-05-01T22:35:05.028Z,11.54
2023-05-01T22:37:32.908Z,11.39
2023-05-01T22:40:01.154Z,11.46
2023-05-01T22:42:29.269Z,11.53
2023-05-01T22:44:58.590Z,11.55
2023-05-01T22:47:26.589Z,11.58
2023-05-01T22:49:54.563Z,11.61
2023-05-01T22:52:22.543Z,11.63
2023-05-01T22:54:52.564Z,11.48
2023-05-01T22:57:20.479Z,11.46
2023-05-01T22:59:48.443Z,11.57
2023-05-01T23:02:18.947Z,11.47
2023-05-01T23:04:47.015Z,11.37
2023-05-01T23:07:15.238Z,11.48
2023-05-01T23:09:43.148Z,11.25
2023-05-01T23:12:17.844Z,11.30
2023-05-01T23:14:47.769Z,11.29
2023-05-01T23:17:17.481Z,11.31
2023-05-01T23:19:47.269Z,11.34
2023-05-01T23:22:15.402Z,11.41
2023-05-01T23:24:48.169Z,11.30
2023-05-01T23:27:16.873Z,11.13
2023-05-01T23:29:49.635Z,11.13
2023-05-01T23:32:23.218Z,11.08
2023-05-01T23:34:51.171Z,10.99
2023-05-01T23:37:19.111Z,10.90
2023-05-01T23:39:47.065Z,10.95
2023-05-01T23:42:15.051Z,10.93
2023-05-01T23:44:42.992Z,11.08
2023-05-01T23:47:11.144Z,11.22
2023-05-01T23:49:40.559Z,11.24
2023-05-01T23:52:08.641Z,11.16
2023-05-01T23:54:36.533Z,11.08
2023-05-01T23:57:04.555Z,11.19
2023-05-01T23:59:32.478Z,11.17
